Time;durP1;ratioP1;P1;durP2;ratioP2;P2;SDS_P1;SDS_P2;PMS_P1;PMS_P2;Temp;Humidity;BMP_temperature;BMP_pressure;BME280_temperature;BME280_humidity;BME280_pressure;Samples;Min_cycle;Max_cycle;Signal;HPM_P1;HPM_P2
2022/03/10 00:01:31;;;;;;;8.43;4.75;;;;;;;;;;5078624;28;20024;-72
2022/03/10 00:03:57;;;;;;;10.88;5.38;;;;;;;;;;5093917;28;20489;-72
2022/03/10 00:06:23;;;;;;;11.52;5.30;;;;;;;;;;5074453;28;20028;-72
2022/03/10 00:08:49;;;;;;;10.15;5.65;;;;;;;;;;5095746;28;20153;-72
2022/03/10 00:11:15;;;;;;;9.70;5.07;;;;;;;;;;5098235;28;20538;-71
2022/03/10 00:13:41;;;;;;;10.88;5.70;;;;;;;;;;5103149;28;20095;-72
2022/03/10 00:16:07;;;;;;;9.93;5.05;;;;;;;;;;5095490;28;20026;-72
2022/03/10 00:18:33;;;;;;;9.68;4.70;;;;;;;;;;5073040;28;20023;-71
2022/03/10 00:20:59;;;;;;;9.93;5.05;;;;;;;;;;5096230;28;20020;-72
2022/03/10 00:23:25;;;;;;;9.80;5.25;;;;;;;;;;5100081;28;20395;-71
2022/03/10 00:25:51;;;;;;;9.95;5.05;;;;;;;;;;5100147;28;20028;-71
2022/03/10 00:28:18;;;;;;;9.35;4.75;;;;;;;;;;5097721;28;20066;-71
2022/03/10 00:30:44;;;;;;;9.40;5.05;;;;;;;;;;5110952;28;20031;-72
2022/03/10 00:33:10;;;;;;;8.85;4.70;;;;;;;;;;5097936;28;20062;-72
2022/03/10 00:35:36;;;;;;;9.80;4.68;;;;;;;;;;5107221;28;20015;-72
2022/03/10 00:38:02;;;;;;;9.88;4.95;;;;;;;;;;5103512;28;20093;-72
2022/03/10 00:40:29;;;;;;;8.57;4.47;;;;;;;;;;5099812;28;20031;-72
2022/03/10 00:42:55;;;;;;;9.52;4.70;;;;;;;;;;5097242;28;20063;-71
2022/03/10 00:45:21;;;;;;;9.93;4.97;;;;;;;;;;5096974;28;20028;-72
2022/03/10 00:47:47;;;;;;;9.65;4.85;;;;;;;;;;5108867;28;20031;-72
2022/03/10 00:50:14;;;;;;;10.10;5.03;;;;;;;;;;5102216;28;20032;-71
2022/03/10 00:52:43;;;;;;;11.23;5.50;;;;;;;;;;5099011;28;20031;-72
2022/03/10 00:55:10;;;;;;;13.63;4.65;;;;;;;;;;5081447;28;20110;-71
2022/03/10 00:57:36;;;;;;;10.07;4.72;;;;;;;;;;5095143;28;20098;-71
2022/03/10 01:00:03;;;;;;;11.68;5.50;;;;;;;;;;5098871;28;20076;-73
2022/03/10 01:02:30;;;;;;;10.45;4.90;;;;;;;;;;5080763;28;20259;-72
2022/03/10 01:04:56;;;;;;;8.90;4.43;;;;;;;;;;5099242;28;20024;-72
2022/03/10 01:07:22;;;;;;;8.45;4.25;;;;;;;;;;5098014;28;20450;-72
2022/03/10 01:09:48;;;;;;;7.68;4.18;;;;;;;;;;5111008;28;20035;-72
2022/03/10 01:12:14;;;;;;;9.23;4.22;;;;;;;;;;5087124;28;20019;-73
2022/03/10 01:14:40;;;;;;;8.23;4.22;;;;;;;;;;5099290;28;20036;-72
2022/03/10 01:17:06;;;;;;;9.40;4.95;;;;;;;;;;5098526;28;20046;-72
2022/03/10 01:19:32;;;;;;;10.77;5.07;;;;;;;;;;5081274;28;20028;-72
2022/03/10 01:21:58;;;;;;;7.65;3.90;;;;;;;;;;5097117;28;20032;-72
2022/03/10 01:24:24;;;;;;;10.07;4.88;;;;;;;;;;5096019;28;20044;-72
2022/03/10 01:26:50;;;;;;;8.43;4.38;;;;;;;;;;5079805;28;20179;-72
2022/03/10 01:29:17;;;;;;;9.65;5.00;;;;;;;;;;5080437;28;20044;-72
2022/03/10 01:31:43;;;;;;;7.82;3.88;;;;;;;;;;5098332;28;20028;-72
2022/03/10 01:34:09;;;;;;;8.73;4.57;;;;;;;;;;5081124;28;20019;-72
2022/03/10 01:36:35;;;;;;;7.90;4.25;;;;;;;;;;5105311;28;20030;-72
2022/03/10 01:39:04;;;;;;;8.57;4.25;;;;;;;;;;5097856;28;20028;-72
2022/03/10 01:41:32;;;;;;;8.73;4.40;;;;;;;;;;5095403;28;20063;-72
2022/03/10 01:44:08;;;;;;;9.00;4.50;;;;;;;;;;5098119;28;20130;-72
2022/03/10 01:46:34;;;;;;;10.00;4.70;;;;;;;;;;5099015;28;20434;-72
2022/03/10 01:49:01;;;;;;;8.50;4.63;;;;;;;;;;5091789;28;20028;-72
2022/03/10 01:51:27;;;;;;;7.45;4.25;;;;;;;;;;5076800;28;20034;-72
2022/03/10 01:53:53;;;;;;;8.30;4.20;;;;;;;;;;5097832;28;20032;-72
2022/03/10 01:56:20;;;;;;;7.53;4.25;;;;;;;;;;5080507;28;20036;-72
2022/03/10 01:58:47;;;;;;;9.18;4.40;;;;;;;;;;5097692;28;20035;-72
2022/03/10 02:01:13;;;;;;;9.27;4.70;;;;;;;;;;5097694;28;20145;-72
2022/03/10 02:03:40;;;;;;;10.27;4.30;;;;;;;;;;5093807;28;20032;-72
2022/03/10 02:06:06;;;;;;;9.82;3.85;;;;;;;;;;5078992;28;20027;-72
2022/03/10 02:11:19;;;;;;;9.45;3.75;;;;;;;;;;5098063;28;20432;-72
2022/03/10 02:13:45;;;;;;;9.25;3.97;;;;;;;;;;5097681;28;20051;-72
2022/03/10 02:18:56;;;;;;;9.48;4.30;;;;;;;;;;5096239;28;20080;-72
2022/03/10 02:21:23;;;;;;;8.35;4.60;;;;;;;;;;5094506;28;20114;-72
2022/03/10 02:23:49;;;;;;;8.05;4.18;;;;;;;;;;5097159;28;20044;-72
2022/03/10 02:26:15;;;;;;;8.82;4.40;;;;;;;;;;5096911;28;20028;-72
2022/03/10 02:28:42;;;;;;;9.05;4.47;;;;;;;;;;5076163;28;20182;-72
2022/03/10 02:31:08;;;;;;;9.35;4.15;;;;;;;;;;5079453;28;20411;-72
2022/03/10 02:33:34;;;;;;;8.20;3.92;;;;;;;;;;5092979;28;20023;-72
2022/03/10 02:36:00;;;;;;;9.00;4.65;;;;;;;;;;5089269;28;20034;-72
2022/03/10 02:38:26;;;;;;;9.68;4.18;;;;;;;;;;5098125;28;20031;-72
2022/03/10 02:40:52;;;;;;;8.07;3.80;;;;;;;;;;5097109;28;20028;-72
2022/03/10 02:43:20;;;;;;;9.05;4.47;;;;;;;;;;5095962;28;20061;-72
2022/03/10 02:45:46;;;;;;;8.52;4.10;;;;;;;;;;5093932;28;20099;-72
2022/03/10 02:48:13;;;;;;;8.63;4.13;;;;;;;;;;5095501;28;20024;-73
2022/03/10 02:50:39;;;;;;;8.13;4.28;;;;;;;;;;5079178;28;20500;-72
2022/03/10 02:53:05;;;;;;;9.02;3.80;;;;;;;;;;5097289;28;20496;-71
2022/03/10 02:55:31;;;;;;;8.82;4.35;;;;;;;;;;5096973;28;20040;-72
2022/03/10 02:57:57;;;;;;;9.25;4.55;;;;;;;;;;5094806;28;20043;-72
2022/03/10 03:00:23;;;;;;;9.70;4.40;;;;;;;;;;5093999;28;20051;-71
2022/03/10 03:02:49;;;;;;;8.73;4.18;;;;;;;;;;5078283;28;20477;-73
2022/03/10 03:05:16;;;;;;;8.90;4.00;;;;;;;;;;5103435;28;20078;-73
2022/03/10 03:07:42;;;;;;;7.90;4.38;;;;;;;;;;5103903;28;20039;-72
2022/03/10 03:10:08;;;;;;;6.97;4.10;;;;;;;;;;5096157;28;20047;-71
2022/03/10 03:12:34;;;;;;;7.20;3.63;;;;;;;;;;5099996;28;20024;-71
2022/03/10 03:15:01;;;;;;;7.30;3.78;;;;;;;;;;5096381;28;20035;-72
2022/03/10 03:17:27;;;;;;;8.77;3.72;;;;;;;;;;5096336;28;20024;-73
2022/03/10 03:19:53;;;;;;;7.68;3.78;;;;;;;;;;5096635;28;20079;-71
2022/03/10 03:22:19;;;;;;;10.60;4.40;;;;;;;;;;5096211;28;20030;-73
2022/03/10 03:24:46;;;;;;;8.38;3.83;;;;;;;;;;5093020;28;20020;-72
2022/03/10 03:27:12;;;;;;;7.88;3.72;;;;;;;;;;5094237;28;20150;-71
2022/03/10 03:29:38;;;;;;;9.02;3.88;;;;;;;;;;5096560;28;20540;-71
2022/03/10 03:32:05;;;;;;;6.90;3.67;;;;;;;;;;5096347;28;20028;-71
2022/03/10 03:34:31;;;;;;;7.68;4.13;;;;;;;;;;5096304;28;20412;-71
2022/03/10 03:36:57;;;;;;;5.50;2.88;;;;;;;;;;5105694;28;20034;-72
2022/03/10 03:39:24;;;;;;;7.50;3.70;;;;;;;;;;5093241;28;20093;-72
2022/03/10 03:41:50;;;;;;;8.60;4.22;;;;;;;;;;5096068;28;20111;-72
2022/03/10 03:44:16;;;;;;;8.43;3.97;;;;;;;;;;5102600;28;20459;-74
2022/03/10 03:46:42;;;;;;;9.15;4.18;;;;;;;;;;5102981;28;20032;-73
2022/03/10 03:49:08;;;;;;;7.80;4.15;;;;;;;;;;5095977;28;20480;-72
2022/03/10 03:51:35;;;;;;;7.95;4.65;;;;;;;;;;5091298;28;20035;-71
2022/03/10 03:54:01;;;;;;;8.75;4.47;;;;;;;;;;5095750;28;20024;-72
2022/03/10 03:56:27;;;;;;;8.50;4.35;;;;;;;;;;5096067;28;20538;-72
2022/03/10 03:58:53;;;;;;;9.05;4.13;;;;;;;;;;5095656;28;20078;-71
2022/03/10 04:01:20;;;;;;;6.57;3.22;;;;;;;;;;5095984;28;20051;-71
2022/03/10 04:03:46;;;;;;;7.80;3.70;;;;;;;;;;5075018;28;20097;-71
2022/03/10 04:06:12;;;;;;;7.45;3.83;;;;;;;;;;5093969;28;20054;-71
2022/03/10 04:08:38;;;;;;;8.55;3.85;;;;;;;;;;5103177;28;20032;-71
2022/03/10 04:11:04;;;;;;;6.55;3.53;;;;;;;;;;5099582;28;20036;-71
2022/03/10 04:13:30;;;;;;;7.32;3.55;;;;;;;;;;5095994;28;20023;-71
2022/03/10 04:15:56;;;;;;;7.82;3.90;;;;;;;;;;5076702;28;20427;-71
2022/03/10 04:18:22;;;;;;;7.47;4.20;;;;;;;;;;5093422;28;20091;-71
2022/03/10 04:20:48;;;;;;;6.85;3.67;;;;;;;;;;5094836;28;20028;-71
2022/03/10 04:23:15;;;;;;;7.68;3.35;;;;;;;;;;5101466;28;20448;-72
2022/03/10 04:25:41;;;;;;;6.45;3.33;;;;;;;;;;5103084;28;20024;-71
2022/03/10 04:28:07;;;;;;;7.28;3.25;;;;;;;;;;5095383;28;20089;-66
2022/03/10 04:30:33;;;;;;;7.30;3.45;;;;;;;;;;5091548;28;20409;-69
2022/03/10 04:33:00;;;;;;;6.70;3.80;;;;;;;;;;5095068;28;20028;-66
2022/03/10 04:35:26;;;;;;;6.70;3.28;;;;;;;;;;5105896;28;20457;-66
2022/03/10 04:37:52;;;;;;;10.10;3.80;;;;;;;;;;5108143;28;20469;-66
2022/03/10 04:40:19;;;;;;;7.82;3.60;;;;;;;;;;5090451;28;20020;-66
2022/03/10 04:42:45;;;;;;;8.40;3.70;;;;;;;;;;5092218;28;20039;-67
2022/03/10 04:45:11;;;;;;;6.35;3.42;;;;;;;;;;5101705;28;20079;-66
2022/03/10 04:47:38;;;;;;;7.03;3.30;;;;;;;;;;5084701;28;20039;-68
2022/03/10 04:50:05;;;;;;;6.28;3.22;;;;;;;;;;5099241;28;20136;-67
2022/03/10 04:52:31;;;;;;;7.88;3.33;;;;;;;;;;5100053;28;20016;-67
2022/03/10 04:54:57;;;;;;;7.20;3.58;;;;;;;;;;5088771;28;20070;-67
2022/03/10 04:57:23;;;;;;;7.35;3.60;;;;;;;;;;5093180;28;20024;-67
2022/03/10 04:59:49;;;;;;;6.85;3.30;;;;;;;;;;5076750;28;20024;-67
2022/03/10 05:02:15;;;;;;;6.60;3.45;;;;;;;;;;5074242;28;20032;-66
2022/03/10 05:04:42;;;;;;;7.97;3.72;;;;;;;;;;5095456;28;20127;-66
2022/03/10 05:07:08;;;;;;;7.50;3.20;;;;;;;;;;5095985;28;20031;-66
2022/03/10 05:09:34;;;;;;;6.78;2.75;;;;;;;;;;5076602;28;20031;-66
2022/03/10 05:12:00;;;;;;;8.23;3.22;;;;;;;;;;5098363;28;20055;-67
2022/03/10 05:14:26;;;;;;;6.40;3.25;;;;;;;;;;5098595;28;20166;-67
2022/03/10 05:16:52;;;;;;;9.55;3.55;;;;;;;;;;5099053;28;20028;-66
2022/03/10 05:19:18;;;;;;;6.45;2.97;;;;;;;;;;5099161;28;20428;-66
2022/03/10 05:21:44;;;;;;;8.55;3.72;;;;;;;;;;5076685;28;20036;-67
2022/03/10 05:24:11;;;;;;;6.60;3.17;;;;;;;;;;5097323;28;20043;-67
2022/03/10 05:26:38;;;;;;;5.40;2.53;;;;;;;;;;5110964;28;20019;-66
2022/03/10 05:29:04;;;;;;;6.43;3.47;;;;;;;;;;5094792;28;20504;-66
2022/03/10 05:31:30;;;;;;;8.10;3.45;;;;;;;;;;5111515;28;20027;-68
2022/03/10 05:33:57;;;;;;;7.43;2.97;;;;;;;;;;5111291;28;20039;-66
2022/03/10 05:36:23;;;;;;;6.43;2.63;;;;;;;;;;5111641;28;20019;-66
2022/03/10 05:38:49;;;;;;;6.35;3.30;;;;;;;;;;5113358;28;20023;-65
2022/03/10 05:41:15;;;;;;;7.90;3.53;;;;;;;;;;5111378;28;20019;-67
2022/03/10 05:43:41;;;;;;;7.00;3.85;;;;;;;;;;5111186;28;20067;-66
2022/03/10 05:46:07;;;;;;;7.28;3.65;;;;;;;;;;5109966;28;20070;-65
2022/03/10 05:48:33;;;;;;;7.55;3.80;;;;;;;;;;5076004;28;20024;-68
2022/03/10 05:50:59;;;;;;;7.70;3.88;;;;;;;;;;5097358;28;20020;-65
2022/03/10 05:53:26;;;;;;;7.93;3.60;;;;;;;;;;5098295;28;20060;-69
2022/03/10 05:55:53;;;;;;;7.10;3.25;;;;;;;;;;5080753;28;20040;-69
2022/03/10 05:58:18;;;;;;;7.00;2.83;;;;;;;;;;5098054;28;20550;-69
2022/03/10 06:00:45;;;;;;;7.55;3.60;;;;;;;;;;5094446;28;20065;-69
2022/03/10 06:03:11;;;;;;;6.47;3.20;;;;;;;;;;5096237;28;20066;-70
2022/03/10 06:05:37;;;;;;;6.95;2.85;;;;;;;;;;5098398;28;20035;-66
2022/03/10 06:08:04;;;;;;;6.13;2.90;;;;;;;;;;5098226;28;20028;-65
2022/03/10 06:10:30;;;;;;;8.85;3.85;;;;;;;;;;5079820;28;20425;-65
2022/03/10 06:12:56;;;;;;;7.45;3.67;;;;;;;;;;5095900;28;20173;-65
2022/03/10 06:15:22;;;;;;;6.90;3.60;;;;;;;;;;5104169;28;20099;-65
2022/03/10 06:17:48;;;;;;;6.45;3.25;;;;;;;;;;5110900;28;20031;-65
2022/03/10 06:20:14;;;;;;;8.43;3.75;;;;;;;;;;5109586;28;21025;-65
2022/03/10 06:22:40;;;;;;;34.47;14.38;;;;;;;;;;5088443;28;20534;-65
2022/03/10 06:25:08;;;;;;;26.88;11.82;;;;;;;;;;5097306;28;20015;-70
2022/03/10 06:27:34;;;;;;;13.02;6.38;;;;;;;;;;5075801;28;20465;-70
2022/03/10 06:30:00;;;;;;;19.88;9.55;;;;;;;;;;5078423;28;20059;-70
2022/03/10 06:32:26;;;;;;;18.20;9.27;;;;;;;;;;5079262;28;20028;-65
2022/03/10 06:34:54;;;;;;;9.90;4.82;;;;;;;;;;5098397;28;20028;-65
2022/03/10 06:37:20;;;;;;;8.90;4.75;;;;;;;;;;5107469;28;20051;-65
2022/03/10 06:39:46;;;;;;;7.68;3.20;;;;;;;;;;5094277;28;20101;-66
2022/03/10 06:42:12;;;;;;;6.28;3.25;;;;;;;;;;5094939;28;20039;-65
2022/03/10 06:44:38;;;;;;;7.80;3.97;;;;;;;;;;5097707;28;20043;-65
2022/03/10 06:47:05;;;;;;;9.80;4.45;;;;;;;;;;5078928;28;20028;-65
2022/03/10 06:49:31;;;;;;;9.27;4.20;;;;;;;;;;5097338;28;20040;-65
2022/03/10 06:51:57;;;;;;;7.90;3.75;;;;;;;;;;5097200;28;20058;-65
2022/03/10 06:54:23;;;;;;;8.10;3.47;;;;;;;;;;5110050;28;20119;-65
2022/03/10 06:56:49;;;;;;;8.52;3.95;;;;;;;;;;5079674;28;20047;-65
2022/03/10 06:59:15;;;;;;;8.32;4.60;;;;;;;;;;5079163;28;20024;-66
2022/03/10 07:01:41;;;;;;;14.45;7.15;;;;;;;;;;5098568;28;20388;-67
2022/03/10 07:04:07;;;;;;;51.92;25.85;;;;;;;;;;5089442;28;20039;-66
2022/03/10 07:06:33;;;;;;;15.88;8.75;;;;;;;;;;5092623;28;20078;-66
2022/03/10 07:08:59;;;;;;;11.77;6.43;;;;;;;;;;5096403;28;20028;-66
2022/03/10 07:11:26;;;;;;;10.63;6.18;;;;;;;;;;5079024;28;20124;-66
2022/03/10 07:13:52;;;;;;;10.25;6.15;;;;;;;;;;5096360;28;20032;-65
2022/03/10 07:16:18;;;;;;;9.13;5.05;;;;;;;;;;5078790;28;20430;-67
2022/03/10 07:18:50;;;;;;;8.80;4.97;;;;;;;;;;5092668;28;20038;-66
2022/03/10 07:21:17;;;;;;;6.90;3.38;;;;;;;;;;5094358;28;20046;-66
2022/03/10 07:23:43;;;;;;;5.53;3.30;;;;;;;;;;5096074;28;20496;-67
2022/03/10 07:26:10;;;;;;;7.75;3.80;;;;;;;;;;5096286;28;20059;-66
2022/03/10 07:28:36;;;;;;;5.75;3.83;;;;;;;;;;5078777;28;20040;-65
2022/03/10 07:31:02;;;;;;;5.65;3.10;;;;;;;;;;5095266;28;20045;-65
2022/03/10 07:33:28;;;;;;;6.38;3.65;;;;;;;;;;5092518;28;20028;-66
2022/03/10 07:35:55;;;;;;;5.70;3.45;;;;;;;;;;5087180;28;20450;-66
2022/03/10 07:38:21;;;;;;;6.47;4.05;;;;;;;;;;5097576;28;20386;-66
2022/03/10 07:40:47;;;;;;;6.45;3.78;;;;;;;;;;5098633;28;20080;-67
2022/03/10 07:43:13;;;;;;;6.72;3.97;;;;;;;;;;5107702;28;20392;-66
2022/03/10 07:45:39;;;;;;;6.53;3.97;;;;;;;;;;5074095;28;20023;-66
2022/03/10 07:48:06;;;;;;;7.00;4.30;;;;;;;;;;5094809;28;20389;-66
2022/03/10 07:50:32;;;;;;;7.32;5.13;;;;;;;;;;5078212;28;20053;-66
2022/03/10 07:52:57;;;;;;;6.22;4.30;;;;;;;;;;5078500;28;20120;-66
2022/03/10 07:55:23;;;;;;;6.80;4.32;;;;;;;;;;5095640;28;20015;-66
2022/03/10 07:57:49;;;;;;;6.30;3.50;;;;;;;;;;5093117;28;20028;-66
2022/03/10 08:00:16;;;;;;;6.30;3.67;;;;;;;;;;5093424;28;20038;-66
2022/03/10 08:02:42;;;;;;;6.25;3.55;;;;;;;;;;5096201;28;20078;-66
2022/03/10 08:05:08;;;;;;;6.20;3.28;;;;;;;;;;5096207;28;20020;-66
2022/03/10 08:07:34;;;;;;;5.35;3.35;;;;;;;;;;5078302;28;20032;-67
2022/03/10 08:10:01;;;;;;;5.70;3.03;;;;;;;;;;5094399;28;20066;-66
2022/03/10 08:12:29;;;;;;;5.95;3.38;;;;;;;;;;5074347;28;20027;-67
2022/03/10 08:14:55;;;;;;;5.90;3.35;;;;;;;;;;5095249;28;20028;-66
2022/03/10 08:17:21;;;;;;;6.22;3.20;;;;;;;;;;5095944;28;20069;-66
2022/03/10 08:19:47;;;;;;;5.22;2.83;;;;;;;;;;5074713;28;20055;-67
2022/03/10 08:22:15;;;;;;;5.32;2.90;;;;;;;;;;5077190;28;20016;-66
2022/03/10 08:24:41;;;;;;;;;;;;;;;;;;5091819;28;20138;-66
2022/03/10 08:27:08;;;;;;;4.53;2.70;;;;;;;;;;5076679;28;20339;-67
2022/03/10 08:29:34;;;;;;;6.45;3.30;;;;;;;;;;5104611;28;20044;-67
2022/03/10 08:32:00;;;;;;;4.28;2.85;;;;;;;;;;5100615;28;20036;-68
2022/03/10 08:34:26;;;;;;;4.57;2.90;;;;;;;;;;5077818;28;20020;-68
2022/03/10 08:36:52;;;;;;;5.30;2.78;;;;;;;;;;5104480;28;20020;-67
2022/03/10 08:39:18;;;;;;;4.10;2.60;;;;;;;;;;5093117;28;20058;-67
2022/03/10 08:41:44;;;;;;;3.67;2.70;;;;;;;;;;5096363;28;20063;-67
2022/03/10 08:44:12;;;;;;;3.92;2.20;;;;;;;;;;5099228;28;20437;-67
2022/03/10 08:46:38;;;;;;;3.92;2.40;;;;;;;;;;5099652;28;20153;-67
2022/03/10 08:49:04;;;;;;;4.30;2.80;;;;;;;;;;5087660;28;20031;-68
2022/03/10 08:51:30;;;;;;;4.22;2.63;;;;;;;;;;5094398;28;20035;-67
2022/03/10 08:53:56;;;;;;;5.28;2.97;;;;;;;;;;5097053;28;20547;-67
2022/03/10 08:56:22;;;;;;;5.03;2.85;;;;;;;;;;5097564;28;20028;-68
2022/03/10 08:58:49;;;;;;;4.70;2.85;;;;;;;;;;5100047;28;20477;-67
2022/03/10 09:01:15;;;;;;;4.95;2.75;;;;;;;;;;5108797;28;20019;-66
2022/03/10 09:03:41;;;;;;;6.47;3.33;;;;;;;;;;5093840;28;20476;-67
2022/03/10 09:06:10;;;;;;;6.47;3.70;;;;;;;;;;5078559;28;20112;-67
2022/03/10 09:08:36;;;;;;;5.00;2.90;;;;;;;;;;5107097;28;20019;-68
2022/03/10 09:11:03;;;;;;;5.90;3.28;;;;;;;;;;5103492;28;20430;-67
2022/03/10 09:13:29;;;;;;;4.97;2.83;;;;;;;;;;5081066;28;20487;-67
2022/03/10 09:15:55;;;;;;;5.68;3.10;;;;;;;;;;5096366;28;20026;-68
2022/03/10 09:18:21;;;;;;;4.43;2.60;;;;;;;;;;5078222;28;20028;-67
2022/03/10 09:20:47;;;;;;;6.32;3.13;;;;;;;;;;5111629;28;20095;-68
2022/03/10 09:23:13;;;;;;;5.57;2.97;;;;;;;;;;5112149;28;20036;-67
2022/03/10 09:25:39;;;;;;;4.65;2.63;;;;;;;;;;5111167;28;20059;-67
2022/03/10 09:28:05;;;;;;;4.57;2.63;;;;;;;;;;5111355;28;20074;-66
2022/03/10 09:30:31;;;;;;;5.40;2.72;;;;;;;;;;5093917;28;20489;-68
2022/03/10 09:32:57;;;;;;;4.13;2.40;;;;;;;;;;5113425;28;20024;-67
2022/03/10 09:35:24;;;;;;;5.45;2.65;;;;;;;;;;5113807;27;20028;-67
2022/03/10 09:37:50;;;;;;;4.05;2.40;;;;;;;;;;5111373;28;20387;-68
2022/03/10 09:40:16;;;;;;;3.80;2.40;;;;;;;;;;5093868;28;20039;-68
2022/03/10 09:42:43;;;;;;;4.88;2.35;;;;;;;;;;5111382;28;20039;-67
2022/03/10 09:45:10;;;;;;;4.85;2.47;;;;;;;;;;5110708;28;20020;-68
2022/03/10 09:47:37;;;;;;;4.38;2.63;;;;;;;;;;5111244;28;20084;-68
2022/03/10 09:50:05;;;;;;;5.53;2.85;;;;;;;;;;5111463;28;20031;-68
2022/03/10 09:52:31;;;;;;;6.18;3.50;;;;;;;;;;5093690;28;20187;-68
2022/03/10 09:54:57;;;;;;;4.55;2.88;;;;;;;;;;5111558;28;20164;-68
2022/03/10 09:57:24;;;;;;;5.82;3.05;;;;;;;;;;5111279;28;20019;-68
2022/03/10 09:59:51;;;;;;;6.10;3.40;;;;;;;;;;5112113;28;20054;-68
2022/03/10 10:02:17;;;;;;;5.65;2.97;;;;;;;;;;5093616;28;20408;-67
2022/03/10 10:04:44;;;;;;;5.82;3.65;;;;;;;;;;5093654;28;20508;-68
2022/03/10 10:07:11;;;;;;;5.30;2.90;;;;;;;;;;5111171;28;20026;-68
2022/03/10 10:09:48;;;;;;;7.45;2.90;;;;;;;;;;5109622;28;20023;-68
2022/03/10 10:12:14;;;;;;;6.35;3.35;;;;;;;;;;5093090;28;20098;-68
2022/03/10 10:14:41;;;;;;;5.72;2.92;;;;;;;;;;5107575;28;20050;-67
2022/03/10 10:17:07;;;;;;;6.65;3.47;;;;;;;;;;5101257;28;20024;-68
2022/03/10 10:19:34;;;;;;;6.55;3.20;;;;;;;;;;5097302;28;20304;-67
2022/03/10 10:22:13;;;;;;;5.32;2.90;;;;;;;;;;5096100;28;20099;-67
2022/03/10 10:24:39;;;;;;;6.32;3.30;;;;;;;;;;5093570;28;20036;-67
2022/03/10 10:27:18;;;;;;;5.95;3.28;;;;;;;;;;5108127;28;20024;-69
2022/03/10 10:29:45;;;;;;;7.03;3.17;;;;;;;;;;5107739;28;20095;-68
2022/03/10 10:32:11;;;;;;;6.32;3.38;;;;;;;;;;5100626;28;20029;-68
2022/03/10 10:34:37;;;;;;;9.80;4.10;;;;;;;;;;5097733;28;20028;-68
2022/03/10 10:37:03;;;;;;;6.60;4.00;;;;;;;;;;5089415;28;20035;-68
2022/03/10 10:39:29;;;;;;;7.82;4.03;;;;;;;;;;5094168;28;20040;-68
2022/03/10 10:41:55;;;;;;;10.70;5.80;;;;;;;;;;5096692;28;20072;-68
2022/03/10 10:44:23;;;;;;;10.40;5.95;;;;;;;;;;5096732;28;20382;-68
2022/03/10 10:46:50;;;;;;;9.65;5.90;;;;;;;;;;5097161;28;20053;-67
2022/03/10 10:49:17;;;;;;;9.60;5.53;;;;;;;;;;5097308;28;20024;-67
2022/03/10 10:51:48;;;;;;;12.52;7.18;;;;;;;;;;5075964;28;20038;-68
2022/03/10 10:54:20;;;;;;;18.00;7.80;;;;;;;;;;5092603;28;20034;-68
2022/03/10 10:57:07;;;;;;;12.95;7.38;;;;;;;;;;5107359;28;20441;-68
2022/03/10 10:59:37;;;;;;;13.38;8.13;;;;;;;;;;5079164;28;20024;-69
2022/03/10 11:02:10;;;;;;;15.10;8.25;;;;;;;;;;5097002;28;20031;-67
2022/03/10 11:04:36;;;;;;;15.73;9.43;;;;;;;;;;5084495;28;20038;-68
2022/03/10 11:07:03;;;;;;;16.73;9.40;;;;;;;;;;5108078;28;20020;-67
2022/03/10 11:09:31;;;;;;;15.82;9.45;;;;;;;;;;5109786;28;20220;-69
2022/03/10 11:11:58;;;;;;;14.85;9.38;;;;;;;;;;5112078;28;20012;-69
2022/03/10 11:14:24;;;;;;;24.15;12.10;;;;;;;;;;5110114;28;20034;-68
2022/03/10 11:16:50;;;;;;;23.40;12.63;;;;;;;;;;5109581;28;20102;-69
2022/03/10 11:19:25;;;;;;;23.33;14.32;;;;;;;;;;5109480;28;20061;-68
2022/03/10 11:22:02;;;;;;;23.65;12.93;;;;;;;;;;5109468;28;20019;-69
2022/03/10 11:24:51;;;;;;;21.77;12.23;;;;;;;;;;5091235;28;20044;-68
2022/03/10 11:27:27;;;;;;;23.88;13.75;;;;;;;;;;5096566;28;20100;-69
2022/03/10 11:29:54;;;;;;;24.15;13.35;;;;;;;;;;5091539;28;20094;-68
2022/03/10 11:32:25;;;;;;;21.65;12.27;;;;;;;;;;5109653;28;20107;-68
2022/03/10 11:34:53;;;;;;;22.75;13.05;;;;;;;;;;5109145;28;20016;-70
2022/03/10 11:37:37;;;;;;;25.80;14.98;;;;;;;;;;5109182;28;20092;-69
2022/03/10 11:40:08;;;;;;;21.17;12.95;;;;;;;;;;5107993;28;20024;-70
2022/03/10 11:42:35;;;;;;;23.83;14.07;;;;;;;;;;5109005;28;20016;-70
2022/03/10 11:45:08;;;;;;;25.08;13.07;;;;;;;;;;5111417;28;20034;-74
2022/03/10 11:47:35;;;;;;;22.48;13.35;;;;;;;;;;5108826;28;20032;-67
2022/03/10 11:50:19;;;;;;;22.00;13.55;;;;;;;;;;5109189;28;20085;-67
2022/03/10 11:52:50;;;;;;;25.33;13.98;;;;;;;;;;5107647;28;20035;-67
2022/03/10 11:55:16;;;;;;;20.90;12.77;;;;;;;;;;5107249;28;20396;-68
2022/03/10 11:57:45;;;;;;;20.83;11.82;;;;;;;;;;5108755;28;20027;-67
2022/03/10 12:00:15;;;;;;;22.17;12.40;;;;;;;;;;5110246;28;20043;-67
2022/03/10 12:02:43;;;;;;;20.98;12.02;;;;;;;;;;5110384;28;20051;-67
2022/03/10 12:05:09;;;;;;;21.40;12.60;;;;;;;;;;5091992;28;20485;-68
2022/03/10 12:07:40;;;;;;;19.55;12.27;;;;;;;;;;5108450;28;20065;-69
2022/03/10 12:10:06;;;;;;;19.90;12.15;;;;;;;;;;5108349;28;20062;-69
2022/03/10 12:12:37;;;;;;;22.25;12.88;;;;;;;;;;5108206;28;20016;-70
2022/03/10 12:15:21;;;;;;;19.63;12.18;;;;;;;;;;5111029;28;20024;-68
2022/03/10 12:17:53;;;;;;;20.05;11.52;;;;;;;;;;5095175;28;20063;-70
2022/03/10 12:20:38;;;;;;;21.52;12.50;;;;;;;;;;5093405;28;20501;-69
2022/03/10 12:23:06;;;;;;;14.80;8.85;;;;;;;;;;5109666;28;20038;-68
2022/03/10 12:25:37;;;;;;;18.10;11.45;;;;;;;;;;5110537;28;20023;-68
2022/03/10 12:28:03;;;;;;;19.52;11.40;;;;;;;;;;5113025;28;20045;-67
2022/03/10 12:30:30;;;;;;;17.58;10.90;;;;;;;;;;5094133;28;20041;-68
2022/03/10 12:32:57;;;;;;;18.15;10.93;;;;;;;;;;5096284;28;20024;-69
2022/03/10 12:35:30;;;;;;;18.63;11.25;;;;;;;;;;5094911;28;20023;-68
2022/03/10 12:37:56;;;;;;;17.05;10.93;;;;;;;;;;5099940;28;20072;-68
2022/03/10 12:40:24;;;;;;;17.33;10.25;;;;;;;;;;5099496;28;20059;-69
2022/03/10 12:42:52;;;;;;;17.55;9.82;;;;;;;;;;5096133;28;20045;-68
2022/03/10 12:45:21;;;;;;;18.42;10.50;;;;;;;;;;5078839;28;20032;-68
2022/03/10 12:48:03;;;;;;;16.88;10.43;;;;;;;;;;5089633;28;20023;-69
2022/03/10 12:50:29;;;;;;;21.58;12.05;;;;;;;;;;5084325;28;20496;-69
2022/03/10 12:52:56;;;;;;;23.08;12.63;;;;;;;;;;5078512;28;20068;-68
2022/03/10 12:55:26;;;;;;;20.77;11.15;;;;;;;;;;5081620;28;20223;-68
2022/03/10 12:57:58;;;;;;;18.10;9.50;;;;;;;;;;5096640;28;20020;-69
2022/03/10 13:00:25;;;;;;;19.63;11.50;;;;;;;;;;5096313;28;20058;-68
2022/03/10 13:02:55;;;;;;;20.35;12.10;;;;;;;;;;5080585;28;20023;-69
2022/03/10 13:05:22;;;;;;;19.17;11.77;;;;;;;;;;5099290;28;20035;-68
2022/03/10 13:07:48;;;;;;;21.35;12.80;;;;;;;;;;5098464;28;20109;-68
2022/03/10 13:10:17;;;;;;;21.85;12.30;;;;;;;;;;5098812;28;20112;-68
2022/03/10 13:12:45;;;;;;;21.50;12.27;;;;;;;;;;5095192;28;20055;-68
2022/03/10 13:15:19;;;;;;;18.33;10.90;;;;;;;;;;5078911;28;20153;-68
2022/03/10 13:17:45;;;;;;;19.08;11.60;;;;;;;;;;5091050;28;20112;-68
2022/03/10 13:20:12;;;;;;;20.25;12.02;;;;;;;;;;5101387;28;20066;-68
2022/03/10 13:22:43;;;;;;;19.48;11.73;;;;;;;;;;5098477;28;20028;-68
2022/03/10 13:25:10;;;;;;;19.88;11.65;;;;;;;;;;5098359;28;20038;-68
2022/03/10 13:27:36;;;;;;;20.65;11.38;;;;;;;;;;5093691;28;20112;-68
2022/03/10 13:30:02;;;;;;;20.67;12.13;;;;;;;;;;5079417;28;20463;-68
2022/03/10 13:32:30;;;;;;;21.60;11.90;;;;;;;;;;5077732;28;20024;-69
2022/03/10 13:34:59;;;;;;;17.95;9.82;;;;;;;;;;5099409;28;20065;-69
2022/03/10 13:37:25;;;;;;;20.02;11.32;;;;;;;;;;5108342;28;20030;-69
2022/03/10 13:39:51;;;;;;;19.33;12.52;;;;;;;;;;5095649;28;20030;-69
2022/03/10 13:42:21;;;;;;;24.35;13.10;;;;;;;;;;5095660;28;20472;-69
2022/03/10 13:44:47;;;;;;;19.08;11.85;;;;;;;;;;5097485;28;20047;-69
2022/03/10 13:47:13;;;;;;;19.60;13.02;;;;;;;;;;5098270;28;20500;-69
2022/03/10 13:49:44;;;;;;;19.10;12.77;;;;;;;;;;5096461;28;20420;-69
2022/03/10 13:52:10;;;;;;;21.30;12.75;;;;;;;;;;5097547;28;20054;-68
2022/03/10 13:54:38;;;;;;;20.95;11.80;;;;;;;;;;5092913;28;20023;-68
2022/03/10 13:57:04;;;;;;;22.95;12.75;;;;;;;;;;5097710;28;20039;-68
2022/03/10 13:59:31;;;;;;;21.52;12.73;;;;;;;;;;5079347;28;20126;-67
2022/03/10 14:01:57;;;;;;;17.70;11.32;;;;;;;;;;5097619;28;20024;-68
2022/03/10 14:04:23;;;;;;;24.20;13.50;;;;;;;;;;5096298;28;20035;-67
2022/03/10 14:06:50;;;;;;;22.30;11.45;;;;;;;;;;5076184;28;20020;-68
2022/03/10 14:09:23;;;;;;;17.63;11.50;;;;;;;;;;5096016;28;20055;-68
2022/03/10 14:11:50;;;;;;;15.73;9.75;;;;;;;;;;5098363;27;20391;-68
2022/03/10 14:14:16;;;;;;;19.50;12.25;;;;;;;;;;5102356;27;20032;-68
2022/03/10 14:16:52;;;;;;;20.02;12.43;;;;;;;;;;5097768;28;20103;-68
2022/03/10 14:19:23;;;;;;;21.63;12.65;;;;;;;;;;5097488;28;20031;-68
2022/03/10 14:21:52;;;;;;;17.38;10.65;;;;;;;;;;5094306;28;20016;-68
2022/03/10 14:24:45;;;;;;;21.13;10.68;;;;;;;;;;5094757;28;20043;-68
2022/03/10 14:27:11;;;;;;;17.70;9.82;;;;;;;;;;5089204;28;20189;-68
2022/03/10 14:29:40;;;;;;;17.67;9.63;;;;;;;;;;5097606;28;20175;-68
2022/03/10 14:32:07;;;;;;;19.20;11.93;;;;;;;;;;5096735;28;20051;-69
2022/03/10 14:34:36;;;;;;;16.35;10.25;;;;;;;;;;5079805;28;20022;-68
2022/03/10 14:37:03;;;;;;;23.95;12.40;;;;;;;;;;5107970;28;20031;-68
2022/03/10 14:39:29;;;;;;;17.77;10.73;;;;;;;;;;5074327;28;20173;-68
2022/03/10 14:41:55;;;;;;;17.85;9.90;;;;;;;;;;5096743;28;20533;-69